createdAt,value
2019-06-26T00:01:17.688Z,32.20
2019-06-26T00:10:19.115Z,32.20
2019-06-26T00:19:22.516Z,32.00
2019-06-26T00:28:24.007Z,32.00
2019-06-26T00:37:25.454Z,31.80
2019-06-26T00:46:26.931Z,31.80
2019-06-26T00:55:28.417Z,31.70
2019-06-26T01:04:31.803Z,31.60
2019-06-26T01:13:33.252Z,31.60
2019-06-26T01:22:34.702Z,31.50
2019-06-26T01:31:36.184Z,31.40
2019-06-26T01:40:37.664Z,31.40
2019-06-26T01:49:39.116Z,31.30
2019-06-26T01:58:40.569Z,31.20
2019-06-26T02:07:42.044Z,31.20
2019-06-26T02:16:43.489Z,31.10
2019-06-26T02:25:45.044Z,31.00
2019-06-26T02:34:46.520Z,31.00
2019-06-26T02:43:48.097Z,30.90
2019-06-26T02:52:49.540Z,30.90
2019-06-26T03:01:51.011Z,30.80
2019-06-26T03:10:52.472Z,30.80
2019-06-26T03:19:53.922Z,30.70
2019-06-26T03:28:55.375Z,30.60
2019-06-26T03:37:56.851Z,30.60
2019-06-26T03:46:58.299Z,30.60
2019-06-26T03:55:59.743Z,30.50
2019-06-26T04:05:01.232Z,30.50
2019-06-26T04:14:02.998Z,30.40
2019-06-26T04:23:04.437Z,30.40
2019-06-26T04:32:05.881Z,30.30
2019-06-26T04:41:07.360Z,30.30
2019-06-26T04:50:08.903Z,30.20
2019-06-26T04:59:10.365Z,30.30
2019-06-26T05:08:11.813Z,30.20
2019-06-26T05:17:13.280Z,30.10
2019-06-26T05:26:14.725Z,30.00
2019-06-26T05:35:16.291Z,30.00
2019-06-26T05:44:17.778Z,29.90
2019-06-26T05:53:19.256Z,30.00
2019-06-26T06:02:20.698Z,30.00
2019-06-26T06:11:22.141Z,30.10
2019-06-26T06:20:29.375Z,30.20
2019-06-26T06:29:30.991Z,30.30
2019-06-26T06:38:32.477Z,30.40
2019-06-26T06:47:34.013Z,30.50
2019-06-26T06:56:35.462Z,30.60
2019-06-26T07:05:36.957Z,30.70
2019-06-26T07:14:38.416Z,30.80
2019-06-26T07:23:39.947Z,30.90
2019-06-26T07:32:41.426Z,31.00
2019-06-26T07:41:43.032Z,31.00
2019-06-26T07:50:44.488Z,31.10
2019-06-26T07:59:46.004Z,31.20
2019-06-26T08:08:47.444Z,31.40
2019-06-26T08:17:59.987Z,31.50
2019-06-26T08:26:52.248Z,31.60
2019-06-26T08:35:53.749Z,31.70
2019-06-26T08:44:55.247Z,31.90
2019-06-26T08:53:56.776Z,32.00
2019-06-26T09:02:58.251Z,32.10
2019-06-26T09:11:59.748Z,32.10
2019-06-26T09:21:01.268Z,32.30
2019-06-26T09:30:06.400Z,32.50
2019-06-26T09:39:07.899Z,32.60
2019-06-26T09:48:09.351Z,32.80
2019-06-26T09:57:10.876Z,33.00
2019-06-26T10:06:12.347Z,33.10
2019-06-26T10:15:13.937Z,33.20
2019-06-26T10:24:16.540Z,33.40
2019-06-26T10:33:18.052Z,33.50
2019-06-26T10:42:19.522Z,33.60
2019-06-26T10:51:20.995Z,33.70
2019-06-26T11:00:22.615Z,33.90
2019-06-26T11:09:24.167Z,34.10
2019-06-26T11:18:25.817Z,34.30
2019-06-26T11:27:27.430Z,34.40
2019-06-26T11:36:28.926Z,34.40
2019-06-26T11:45:30.403Z,34.50
2019-06-26T11:54:31.900Z,34.70
2019-06-26T12:03:33.390Z,34.90
2019-06-26T12:12:34.858Z,35.00
2019-06-26T12:21:36.353Z,35.10
2019-06-26T12:30:38.950Z,35.10
2019-06-26T12:39:40.415Z,35.20
2019-06-26T12:48:42.000Z,35.40
2019-06-26T12:57:43.562Z,35.50
2019-06-26T13:06:45.052Z,35.70
2019-06-26T13:15:46.530Z,35.90
2019-06-26T13:24:48.144Z,36.00
2019-06-26T13:33:49.725Z,36.00
2019-06-26T13:42:51.328Z,36.00
2019-06-26T13:51:52.817Z,36.10
2019-06-26T14:00:54.326Z,36.20
2019-06-26T14:09:55.835Z,36.40
2019-06-26T14:18:57.409Z,36.50
2019-06-26T14:27:58.885Z,36.80
2019-06-26T14:37:00.365Z,37.90
2019-06-26T14:46:01.872Z,38.80
2019-06-26T14:55:06.447Z,38.60
2019-06-26T15:04:07.937Z,38.10
2019-06-26T15:13:09.524Z,37.70
2019-06-26T15:22:11.114Z,37.40
2019-06-26T15:31:12.586Z,37.30
2019-06-26T15:40:14.817Z,37.20
2019-06-26T15:49:16.406Z,37.10
2019-06-26T15:58:17.963Z,36.90
2019-06-26T16:07:19.566Z,36.80
2019-06-26T16:16:21.043Z,36.70
2019-06-26T16:25:22.519Z,36.60
2019-06-26T16:34:24.016Z,36.80
2019-06-26T16:43:25.537Z,37.50
2019-06-26T16:52:27.067Z,38.80
2019-06-26T17:01:28.630Z,40.10
2019-06-26T17:10:30.116Z,40.60
2019-06-26T17:19:31.737Z,41.20
2019-06-26T17:28:33.220Z,41.70
2019-06-26T17:37:34.746Z,42.00
2019-06-26T17:46:36.366Z,42.10
2019-06-26T17:55:37.923Z,41.80
2019-06-26T18:04:39.554Z,41.20
2019-06-26T18:13:41.113Z,40.20
2019-06-26T18:22:42.657Z,39.00
2019-06-26T18:31:44.198Z,37.80
2019-06-26T18:40:45.879Z,36.80
2019-06-26T18:49:47.404Z,36.00
2019-06-26T18:58:49.100Z,35.30
2019-06-26T19:07:50.721Z,34.70
2019-06-26T19:16:52.261Z,34.20
2019-06-26T19:25:53.797Z,33.80
2019-06-26T19:34:56.528Z,33.50
2019-06-26T19:43:58.141Z,33.20
2019-06-26T19:52:59.689Z,33.00
2019-06-26T20:02:01.423Z,32.70
2019-06-26T20:11:02.915Z,32.40
2019-06-26T20:20:05.776Z,32.20
2019-06-26T20:29:07.419Z,32.00
2019-06-26T20:38:09.143Z,31.70
2019-06-26T20:47:10.815Z,31.60
2019-06-26T20:56:12.400Z,31.40
2019-06-26T21:05:13.915Z,31.10
2019-06-26T21:14:15.493Z,30.90
2019-06-26T21:23:18.706Z,30.80
2019-06-26T21:32:20.357Z,30.60
2019-06-26T21:41:21.748Z,30.50
2019-06-26T21:50:23.236Z,30.30
2019-06-26T21:59:24.751Z,30.10
2019-06-26T22:08:44.797Z,29.90
2019-06-26T22:17:46.577Z,29.70
2019-06-26T22:26:48.755Z,29.50
2019-06-26T22:35:50.222Z,29.40
2019-06-26T22:44:51.718Z,29.20
2019-06-26T22:53:53.209Z,29.00
2019-06-26T23:02:54.713Z,28.80
2019-06-26T23:11:56.198Z,28.60
2019-06-26T23:20:57.636Z,28.40
2019-06-26T23:29:59.162Z,28.20
2019-06-26T23:39:00.608Z,28.00
2019-06-26T23:48:02.459Z,27.80
2019-06-26T23:57:03.957Z,27.60
